Terminal Aerodrome Forecast
Issued by NWS Amarillo, TX

Home | Current Version | Previous Version | Text Only | Print | Product List | Glossary On
Versions: 1 2 3 4 5 6 7 8 9 10 11 12 13 14 15 16 17 18 19 20 21 22 23 24 25 26
000
FTUS44 KAMA 251517 AAC
TAFAMA
TAF AMD
KAMA 251517Z 2515/2612 21005KT P6SM FEW010
      TEMPO 2515/2516 5SM BR BKN006
     FM251800 16010KT P6SM SCT040 OVC100
     FM260600 14007KT P6SM SCT100 OVC300=

USA.gov is the U.S. government's official web portal to all federal, state and local government web resources and services.